Terminal Aerodrome Forecast
Issued by NWS

Home | Current Version | Previous Version | Text Only | Print | Product List | Glossary On
Versions: 1 2 3 4 5 6 7 8 9 10 11 12 13 14
024
FTUS46 KHNX 101120
TAFFAT
TAF
KFAT 101120Z 1012/1112 07003KT P6SM SCT150
     FM102100 30004KT P6SM BKN250
     FM110600 11002KT 4SM BR BKN250=

USA.gov is the U.S. government's official web portal to all federal, state and local government web resources and services.